| time (UTC) | temp C | wind direction | speed KPH | gust KPH | rain 1hr cm | rain 24hr cm | rain mn cm | humidity % | barometer mb |
| 20260504023520 | 17 | 178 | 0.0 | 0.0 | 0.00 | 0.00 | 0.00 | 63 | 1019.8 |
| 20260504022017 | 18 | 178 | 0.0 | 0.0 | 0.00 | 0.00 | 0.00 | 61 | 1019.8 |
| 20260504020519 | 18 | 178 | 0.0 | 0.0 | 0.00 | 0.00 | 0.00 | 58 | 1019.7 |
| 20260504015039 | 19 | 178 | 0.0 | 0.0 | 0.00 | 0.00 | 0.00 | 57 | 1019.6 |
| 20260504013513 | 20 | 178 | 0.0 | 0.0 | 0.00 | 0.00 | 0.00 | 55 | 1019.3 |
| 20260504012015 | 20 | 306 | 0.0 | 0.0 | 0.00 | 0.00 | 0.00 | 54 | 1019.2 |
| 20260504010533 | 20 | 253 | 0.0 | 0.0 | 0.00 | 0.00 | 0.00 | 53 | 1019.0 |
| 20260504005022 | 21 | 217 | 1.6 | 0.0 | 0.00 | 0.00 | 0.00 | 51 | 1019.0 |
| 20260504003520 | 21 | 269 | 3.2 | 0.0 | 0.00 | 0.00 | 0.00 | 50 | 1018.7 |
| 20260504002041 | 22 | 259 | 1.6 | 0.0 | 0.00 | 0.00 | 0.00 | 48 | 1018.7 |
| 20260504000519 | 23 | 268 | 1.6 | 0.0 | 0.00 | 0.00 | 0.00 | 47 | 1018.6 |
| 20260503235021 | 23 | 178 | 0.0 | 0.0 | 0.00 | 0.00 | 0.00 | 39 | 1018.5 |
| 20260503233515 | 24 | 178 | 0.0 | 0.0 | 0.00 | 0.00 | 0.00 | 37 | 1018.4 |
| 20260503232021 | 25 | 216 | 0.0 | 0.0 | 0.00 | 0.00 | 0.00 | 37 | 1018.6 |
| 20260503230534 | 25 | 244 | 1.6 | 0.0 | 0.00 | 0.00 | 0.00 | 34 | 1018.6 |
| 20260503225028 | 26 | 117 | 0.0 | 0.0 | 0.00 | 0.00 | 0.00 | 35 | 1018.5 |
| 20260503223524 | 27 | 234 | 0.0 | 0.0 | 0.00 | 0.00 | 0.00 | 33 | 1018.6 |
| 20260503222028 | 27 | 252 | 1.6 | 0.0 | 0.00 | 0.00 | 0.00 | 31 | 1018.7 |
| 20260503220519 | 27 | 194 | 0.0 | 0.0 | 0.00 | 0.00 | 0.00 | 32 | 1018.7 |
| 20260503215014 | 28 | 117 | 1.6 | 0.0 | 0.00 | 0.00 | 0.00 | 33 | 1018.7 |
| 20260503213517 | 27 | 355 | 1.6 | 0.0 | 0.00 | 0.00 | 0.00 | 33 | 1018.8 |
| 20260503212015 | 27 | 234 | 1.6 | 0.0 | 0.00 | 0.00 | 0.00 | 33 | 1019.0 |
| 20260503210510 | 27 | 249 | 0.0 | 0.0 | 0.00 | 0.00 | 0.00 | 30 | 1019.2 |
| 20260503205033 | 27 | 274 | 0.0 | 0.0 | 0.00 | 0.00 | 0.00 | 33 | 1019.3 |
| 20260503203530 | 27 | 34 | 1.6 | 0.0 | 0.00 | 0.00 | 0.00 | 34 | 1019.7 |
| 20260503202021 | 27 | 147 | 1.6 | 0.0 | 0.00 | 0.00 | 0.00 | 35 | 1019.8 |
| 20260503200517 | 27 | 344 | 1.6 | 0.0 | 0.00 | 0.00 | 0.00 | 33 | 1020.2 |
| 20260503195016 | 27 | 233 | 1.6 | 0.0 | 0.00 | 0.00 | 0.00 | 33 | 1020.3 |
| 20260503193549 | 27 | 337 | 1.6 | 0.0 | 0.00 | 0.00 | 0.00 | 36 | 1020.4 |
| 20260503192029 | 26 | 182 | 1.6 | 0.0 | 0.00 | 0.00 | 0.00 | 34 | 1020.7 |
| 20260503190522 | 26 | 220 | 1.6 | 0.0 | 0.00 | 0.00 | 0.00 | 32 | 1021.0 |
| 20260503185042 | 26 | 163 | 1.6 | 0.0 | 0.00 | 0.00 | 0.00 | 35 | 1021.3 |
| 20260503183522 | 26 | 55 | 1.6 | 0.0 | 0.00 | 0.00 | 0.00 | 36 | 1021.4 |
| 20260503182022 | 25 | 317 | 1.6 | 0.0 | 0.00 | 0.00 | 0.00 | 38 | 1021.8 |
| 20260503180522 | 25 | 144 | 1.6 | 0.0 | 0.00 | 0.00 | 0.00 | 33 | 1022.1 |
| 20260503175033 | 25 | 288 | 1.6 | 0.0 | 0.00 | 0.00 | 0.00 | 35 | 1022.2 |
| 20260503173525 | 25 | 350 | 1.6 | 0.0 | 0.00 | 0.00 | 0.00 | 37 | 1022.3 |
| 20260503172022 | 25 | 15 | 1.6 | 0.0 | 0.00 | 0.00 | 0.00 | 38 | 1022.4 |
| 20260503170535 | 25 | 200 | 1.6 | 0.0 | 0.00 | 0.00 | 0.00 | 38 | 1022.5 |
| 20260503150525 | 22 | 42 | 0.0 | 0.0 | 0.00 | 0.00 | 0.00 | 47 | 1023.4 |
| 20260503130558 | 12 | 346 | 0.0 | 0.0 | 0.00 | 0.00 | 0.00 | 70 | 1022.6 |
| 20260503110527 | 8 | 346 | 0.0 | 0.0 | 0.00 | 0.00 | 0.00 | 72 | 1021.8 |
| 20260503090513 | 9 | 346 | 0.0 | 0.0 | 0.00 | 0.00 | 0.00 | 70 | 1020.8 |
| 20260503080545 | 10 | 346 | 0.0 | 0.0 | 0.00 | 0.00 | 0.00 | 70 | 1020.6 |
| 20260503072035 | 10 | 346 | 0.0 | 0.0 | 0.00 | 0.00 | 0.00 | 70 | 1020.3 |
| 20260503070530 | 10 | 346 | 0.0 | 0.0 | 0.00 | 0.00 | 0.00 | 70 | 1020.2 |
| 20260503055015 | 11 | 346 | 0.0 | 0.0 | 0.00 | 0.00 | 1.09 | 69 | 1020.0 |
| 20260503053510 | 12 | 346 | 0.0 | 0.0 | 0.00 | 0.00 | 1.09 | 68 | 1019.8 |
| 20260503052016 | 12 | 346 | 0.0 | 0.0 | 0.00 | 0.00 | 1.09 | 68 | 1019.8 |
| 20260503050526 | 12 | 346 | 0.0 | 0.0 | 0.00 | 0.00 | 1.09 | 68 | 1019.7 |
| 20260503045027 | 13 | 346 | 0.0 | 0.0 | 0.00 | 0.00 | 1.09 | 67 | 1019.7 |
| 20260503043539 | 13 | 346 | 0.0 | 0.0 | 0.00 | 0.00 | 1.09 | 66 | 1019.7 |
| 20260503042021 | 13 | 346 | 0.0 | 0.0 | 0.00 | 0.00 | 1.09 | 65 | 1019.7 |
| 20260503040521 | 13 | 346 | 0.0 | 0.0 | 0.00 | 0.00 | 1.09 | 64 | 1019.6 |
| 20260503035029 | 14 | 346 | 0.0 | 0.0 | 0.00 | 0.00 | 1.09 | 63 | 1019.4 |
| 20260503033530 | 14 | 346 | 0.0 | 0.0 | 0.00 | 0.00 | 1.09 | 63 | 1019.2 |